createdAt,value
2023-02-20T00:00:28.788Z,2.28
2023-02-20T00:03:16.556Z,2.33
2023-02-20T00:06:02.354Z,2.25
2023-02-20T00:08:48.048Z,2.20
2023-02-20T00:11:33.397Z,2.25
2023-02-20T00:14:19.023Z,2.28
2023-02-20T00:17:04.237Z,2.30
2023-02-20T00:19:49.944Z,2.30
2023-02-20T00:22:35.044Z,2.07
2023-02-20T00:25:21.713Z,2.80
2023-02-20T00:28:07.241Z,3.10
2023-02-20T00:30:52.889Z,3.13
2023-02-20T00:33:38.258Z,3.22
2023-02-20T00:36:23.662Z,3.22
2023-02-20T00:39:09.139Z,3.57
2023-02-20T00:41:56.028Z,3.28
2023-02-20T00:44:41.722Z,3.28
2023-02-20T00:47:27.634Z,3.17
2023-02-20T00:50:17.363Z,2.95
2023-02-20T00:53:03.424Z,2.28
2023-02-20T00:55:49.127Z,2.63
2023-02-20T00:58:34.706Z,3.00
2023-02-20T01:01:20.415Z,2.88
2023-02-20T01:04:05.644Z,2.88
2023-02-20T01:06:51.389Z,2.80
2023-02-20T01:09:36.708Z,3.08
2023-02-20T01:12:22.249Z,3.30
2023-02-20T01:15:09.702Z,2.78
2023-02-20T01:17:55.287Z,2.75
2023-02-20T01:20:40.775Z,2.50
2023-02-20T01:23:26.400Z,2.85
2023-02-20T01:26:11.998Z,2.60
2023-02-20T01:28:57.710Z,2.75
2023-02-20T01:31:51.126Z,3.10
2023-02-20T01:34:36.673Z,2.93
2023-02-20T01:37:22.116Z,2.60
2023-02-20T01:40:08.569Z,3.03
2023-02-20T01:42:54.645Z,3.17
2023-02-20T01:45:41.561Z,3.10
2023-02-20T01:48:27.085Z,2.73
2023-02-20T01:51:12.623Z,2.70
2023-02-20T01:53:58.329Z,2.93
2023-02-20T01:56:46.319Z,2.60
2023-02-20T01:59:36.252Z,2.60
2023-02-20T02:02:24.334Z,2.70
2023-02-20T02:05:11.368Z,2.47
2023-02-20T02:07:58.734Z,2.90
2023-02-20T02:11:03.052Z,2.80
2023-02-20T02:13:48.616Z,2.58
2023-02-20T02:16:37.056Z,2.92
2023-02-20T02:20:04.705Z,2.77
2023-02-20T02:23:36.694Z,2.77
2023-02-20T02:26:40.816Z,3.07
2023-02-20T02:29:51.287Z,2.87
2023-02-20T02:32:48.370Z,2.70
2023-02-20T02:35:39.431Z,2.77
2023-02-20T02:38:37.020Z,2.90
2023-02-20T02:41:43.826Z,2.80
2023-02-20T02:44:33.319Z,3.47
2023-02-20T02:47:27.685Z,2.90
2023-02-20T02:50:16.753Z,2.58
2023-02-20T02:53:03.428Z,2.90
2023-02-20T02:55:49.119Z,2.50
2023-02-20T02:58:34.547Z,3.30
2023-02-20T03:01:21.818Z,2.90
2023-02-20T03:04:08.884Z,2.70
2023-02-20T03:06:59.425Z,2.40
2023-02-20T03:09:50.937Z,2.70
2023-02-20T03:12:43.438Z,3.03
2023-02-20T03:15:37.196Z,2.70
2023-02-20T03:18:31.928Z,2.80
2023-02-20T03:24:05.064Z,2.33
2023-02-20T03:26:52.937Z,2.60
2023-02-20T03:29:39.714Z,2.90
2023-02-20T03:32:47.190Z,2.60
2023-02-20T03:35:56.235Z,3.00
2023-02-20T03:39:03.167Z,3.00
2023-02-20T03:42:08.512Z,2.60
2023-02-20T03:44:54.333Z,2.40
2023-02-20T03:47:43.803Z,2.60
2023-02-20T03:50:48.100Z,2.63
2023-02-20T03:53:33.522Z,2.97
2023-02-20T03:56:27.086Z,2.73
2023-02-20T03:59:20.096Z,2.83
2023-02-20T04:02:30.876Z,2.70
2023-02-20T04:05:25.848Z,2.57
2023-02-20T04:08:17.867Z,3.00
2023-02-20T04:11:23.902Z,2.70
2023-02-20T04:14:11.217Z,2.50
2023-02-20T04:17:03.017Z,2.60
2023-02-20T04:19:48.553Z,2.60
2023-02-20T04:22:39.362Z,2.57
2023-02-20T04:25:37.580Z,2.90
2023-02-20T04:28:24.419Z,2.73
2023-02-20T04:31:15.663Z,2.87
2023-02-20T04:34:01.197Z,3.00
2023-02-20T04:36:46.467Z,2.43
2023-02-20T04:39:31.918Z,2.80
2023-02-20T04:42:17.410Z,3.07
2023-02-20T04:45:03.074Z,3.00
2023-02-20T04:47:48.739Z,2.53
2023-02-20T04:50:35.474Z,2.77
2023-02-20T04:53:21.162Z,2.70
2023-02-20T04:56:06.693Z,2.90
2023-02-20T04:58:52.179Z,2.73
2023-02-20T05:01:37.809Z,2.60
2023-02-20T05:04:23.242Z,3.03
2023-02-20T05:07:08.551Z,2.60
2023-02-20T05:09:54.174Z,3.10
2023-02-20T05:12:39.641Z,2.80
2023-02-20T05:15:26.677Z,3.20
2023-02-20T05:18:12.241Z,3.30
2023-02-20T05:21:16.829Z,3.30
2023-02-20T05:24:03.120Z,2.90
2023-02-20T05:26:49.600Z,3.33
2023-02-20T05:29:35.103Z,3.40
2023-02-20T05:32:22.200Z,3.50
2023-02-20T05:35:07.949Z,3.70
2023-02-20T05:37:53.303Z,3.53
2023-02-20T05:40:38.604Z,3.60
2023-02-20T05:43:23.907Z,4.10
2023-02-20T05:46:09.635Z,4.10
2023-02-20T05:48:55.316Z,4.30
2023-02-20T05:51:40.904Z,3.70
2023-02-20T05:54:26.409Z,3.90
2023-02-20T05:57:12.652Z,3.83
2023-02-20T05:59:58.080Z,3.57
2023-02-20T06:02:43.576Z,4.43
2023-02-20T06:05:29.563Z,4.07
2023-02-20T06:08:15.467Z,3.57
2023-02-20T06:11:01.168Z,3.60
2023-02-20T06:13:46.885Z,3.73
2023-02-20T06:16:32.811Z,3.70
2023-02-20T06:19:23.221Z,3.90
2023-02-20T06:22:08.870Z,4.47
2023-02-20T06:24:54.230Z,4.90
2023-02-20T06:27:39.856Z,4.20
2023-02-20T06:30:25.265Z,4.07
2023-02-20T06:33:10.777Z,3.57
2023-02-20T06:35:56.765Z,3.70
2023-02-20T06:38:42.143Z,3.10
2023-02-20T06:41:27.670Z,3.50
2023-02-20T06:44:13.240Z,3.43
2023-02-20T06:46:58.985Z,2.90
2023-02-20T06:49:45.145Z,3.43
2023-02-20T06:52:30.467Z,3.53
2023-02-20T06:55:16.117Z,3.53
2023-02-20T06:58:01.769Z,3.03
2023-02-20T07:00:47.308Z,3.60
2023-02-20T07:03:32.934Z,3.60
2023-02-20T07:06:18.492Z,3.40
2023-02-20T07:09:04.341Z,3.73
2023-02-20T07:11:50.922Z,3.57
2023-02-20T07:14:36.102Z,3.60
2023-02-20T07:17:21.429Z,3.67
2023-02-20T07:20:07.564Z,3.80
2023-02-20T07:22:57.225Z,3.20
2023-02-20T07:25:43.337Z,4.17
2023-02-20T07:28:28.879Z,4.10
2023-02-20T07:31:14.575Z,3.70
2023-02-20T07:33:59.981Z,3.73
2023-02-20T07:36:46.717Z,4.07
2023-02-20T07:39:32.457Z,3.90
2023-02-20T07:42:18.385Z,3.87
2023-02-20T07:45:04.002Z,3.80
2023-02-20T07:47:49.449Z,4.10
2023-02-20T07:50:35.039Z,3.60
2023-02-20T07:53:21.817Z,3.50
2023-02-20T07:56:07.465Z,3.87
2023-02-20T07:58:53.588Z,3.30
2023-02-20T08:01:38.949Z,3.70
2023-02-20T08:04:24.698Z,3.90
2023-02-20T08:07:10.043Z,4.27
2023-02-20T08:09:55.868Z,3.70
2023-02-20T08:12:41.741Z,4.10
2023-02-20T08:15:27.157Z,4.20
2023-02-20T08:18:22.269Z,3.83
2023-02-20T08:21:09.196Z,4.20
2023-02-20T08:23:55.163Z,4.47
2023-02-20T08:26:48.374Z,4.37
2023-02-20T08:29:33.659Z,4.20
2023-02-20T08:32:19.201Z,4.33
2023-02-20T08:35:05.112Z,4.30
2023-02-20T08:37:50.560Z,4.00
2023-02-20T08:40:36.375Z,4.40
2023-02-20T08:43:22.124Z,4.30
2023-02-20T08:46:07.728Z,3.70
2023-02-20T08:48:54.464Z,4.10
2023-02-20T08:51:39.979Z,3.97
2023-02-20T08:54:25.595Z,4.50
2023-02-20T08:57:10.873Z,3.80
2023-02-20T08:59:56.870Z,4.00
2023-02-20T09:02:42.703Z,3.90
2023-02-20T09:05:28.427Z,4.30
2023-02-20T09:08:14.150Z,4.10
2023-02-20T09:10:59.394Z,3.80
2023-02-20T09:13:46.550Z,4.40
2023-02-20T09:16:32.814Z,4.00
2023-02-20T09:19:18.791Z,4.00
2023-02-20T09:22:04.298Z,3.33
2023-02-20T09:24:51.031Z,3.40
2023-02-20T09:27:37.592Z,3.77
2023-02-20T09:30:23.995Z,3.90
2023-02-20T09:33:09.682Z,4.07
2023-02-20T09:35:56.132Z,3.60
2023-02-20T09:38:41.709Z,4.33
2023-02-20T09:41:53.403Z,3.87
2023-02-20T09:44:59.074Z,3.87
2023-02-20T09:47:59.608Z,3.50
2023-02-20T09:50:57.067Z,3.50
2023-02-20T09:53:51.050Z,3.65
2023-02-20T09:56:49.269Z,3.40
2023-02-20T10:00:04.025Z,3.40
2023-02-20T10:03:05.292Z,3.40
2023-02-20T10:05:50.785Z,3.63
2023-02-20T10:08:36.159Z,3.67
2023-02-20T10:11:42.776Z,3.60
2023-02-20T10:14:53.540Z,3.45
2023-02-20T10:17:44.876Z,3.10
2023-02-20T10:20:47.825Z,2.75
2023-02-20T10:24:03.730Z,3.60
2023-02-20T10:26:57.636Z,3.38
2023-02-20T10:29:45.716Z,3.22
2023-02-20T10:32:42.464Z,3.88
2023-02-20T10:35:42.309Z,3.45
2023-02-20T10:38:33.899Z,3.67
2023-02-20T10:41:40.962Z,3.42
2023-02-20T10:44:51.537Z,3.78
2023-02-20T10:48:15.683Z,3.60
2023-02-20T10:51:25.862Z,3.75
2023-02-20T10:54:19.024Z,3.30
2023-02-20T10:57:20.330Z,3.38
2023-02-20T11:00:36.790Z,3.38
2023-02-20T11:03:50.255Z,3.25
2023-02-20T11:06:43.408Z,3.50
2023-02-20T11:09:28.622Z,3.25
2023-02-20T11:12:37.314Z,3.40
2023-02-20T11:15:28.879Z,3.45
2023-02-20T11:18:26.379Z,3.50
2023-02-20T11:21:42.409Z,3.45
2023-02-20T11:24:31.470Z,3.60
2023-02-20T11:27:24.634Z,3.67
2023-02-20T11:30:22.726Z,3.08
2023-02-20T11:33:15.903Z,3.17
2023-02-20T11:36:19.147Z,3.20
2023-02-20T11:39:20.909Z,3.45
2023-02-20T11:42:17.102Z,3.22
2023-02-20T11:45:16.235Z,3.40
2023-02-20T11:48:14.259Z,3.53
2023-02-20T11:50:59.839Z,3.30
2023-02-20T11:53:45.342Z,3.20
2023-02-20T11:56:30.966Z,3.00
2023-02-20T11:59:33.696Z,3.50
2023-02-20T12:02:25.767Z,3.38
2023-02-20T12:05:15.796Z,2.95
2023-02-20T12:08:01.189Z,3.38
2023-02-20T12:10:50.259Z,2.83
2023-02-20T12:13:42.468Z,3.72
2023-02-20T12:16:56.442Z,3.40
2023-02-20T12:19:54.599Z,3.22
2023-02-20T12:22:46.527Z,3.33
2023-02-20T12:25:48.854Z,3.00
2023-02-20T12:28:45.153Z,2.95
2023-02-20T12:31:30.635Z,2.90
2023-02-20T12:34:44.760Z,3.38
2023-02-20T12:37:57.122Z,3.30
2023-02-20T12:41:01.048Z,2.90
2023-02-20T12:43:51.185Z,2.92
2023-02-20T12:46:53.644Z,3.33
2023-02-20T12:50:07.079Z,3.45
2023-02-20T12:53:17.097Z,3.42
2023-02-20T12:56:25.381Z,3.60
2023-02-20T12:59:31.792Z,3.22
2023-02-20T13:02:48.539Z,3.67
2023-02-20T13:05:37.890Z,3.30
2023-02-20T13:08:29.592Z,3.28
2023-02-20T13:11:19.863Z,3.75
2023-02-20T13:14:14.248Z,3.60
2023-02-20T13:17:18.136Z,3.45
2023-02-20T13:20:30.161Z,3.28
2023-02-20T13:23:15.808Z,3.13
2023-02-20T13:26:02.638Z,3.58
2023-02-20T13:28:47.942Z,3.40
2023-02-20T13:31:36.481Z,3.70
2023-02-20T13:34:22.261Z,3.72
2023-02-20T13:37:37.398Z,3.28
2023-02-20T13:43:26.373Z,2.95
2023-02-20T13:46:15.610Z,3.28
2023-02-20T13:49:01.311Z,3.63
2023-02-20T13:51:46.686Z,3.30
2023-02-20T13:54:34.536Z,3.30
2023-02-20T13:57:20.047Z,3.30
2023-02-20T14:00:35.754Z,2.90
2023-02-20T14:03:23.236Z,2.95
2023-02-20T14:06:19.010Z,3.20
2023-02-20T14:09:16.637Z,2.97
2023-02-20T14:12:14.092Z,2.97
2023-02-20T14:15:02.691Z,2.67
2023-02-20T14:17:49.718Z,2.80
2023-02-20T14:20:37.019Z,2.80
2023-02-20T14:23:29.962Z,2.70
2023-02-20T14:26:31.319Z,3.17
2023-02-20T14:29:29.415Z,2.95
2023-02-20T14:32:15.198Z,2.47
2023-02-20T14:35:38.240Z,2.40
2023-02-20T14:38:38.047Z,2.10
2023-02-20T14:41:24.831Z,2.20
2023-02-20T14:44:18.527Z,2.40
2023-02-20T14:47:14.351Z,2.47
2023-02-20T14:50:21.893Z,2.30
2023-02-20T14:53:16.108Z,2.30
2023-02-20T14:59:27.858Z,2.00
2023-02-20T15:02:24.186Z,2.20
2023-02-20T15:05:28.370Z,2.03
2023-02-20T15:08:21.801Z,1.88
2023-02-20T15:11:13.156Z,1.63
2023-02-20T15:14:00.765Z,1.80
2023-02-20T15:16:46.435Z,3.25
2023-02-20T15:19:39.915Z,4.70
2023-02-20T15:22:37.056Z,3.00
2023-02-20T15:25:25.436Z,2.80
2023-02-20T15:28:20.112Z,3.00
2023-02-20T15:33:54.816Z,3.35
2023-02-20T15:36:41.569Z,2.83
2023-02-20T15:39:27.233Z,2.60
2023-02-20T15:42:12.630Z,3.03
2023-02-20T15:44:57.910Z,3.30
2023-02-20T15:47:43.532Z,2.72
2023-02-20T15:50:29.280Z,2.90
2023-02-20T15:53:21.322Z,3.10
2023-02-20T15:56:06.896Z,3.05
2023-02-20T15:58:52.956Z,3.30
2023-02-20T16:01:39.027Z,3.33
2023-02-20T16:04:24.517Z,3.22
2023-02-20T16:07:10.006Z,3.67
2023-02-20T16:09:55.337Z,3.90
2023-02-20T16:12:41.129Z,3.60
2023-02-20T16:15:26.645Z,3.17
2023-02-20T16:18:11.702Z,3.60
2023-02-20T16:20:57.436Z,3.30
2023-02-20T16:23:45.573Z,3.60
2023-02-20T16:26:34.740Z,3.80
2023-02-20T16:29:36.333Z,3.28
2023-02-20T16:32:23.207Z,3.10
2023-02-20T16:35:12.790Z,3.45
2023-02-20T16:37:58.237Z,3.38
2023-02-20T16:40:43.743Z,3.30
2023-02-20T16:43:29.761Z,3.92
2023-02-20T16:46:17.171Z,3.10
2023-02-20T16:49:07.198Z,3.38
2023-02-20T16:52:01.308Z,3.20
2023-02-20T16:54:49.579Z,3.03
2023-02-20T16:57:34.945Z,3.72
2023-02-20T17:00:27.065Z,3.60
2023-02-20T17:03:12.556Z,3.40
2023-02-20T17:05:59.773Z,4.05
2023-02-20T17:08:45.340Z,3.90
2023-02-20T17:11:30.637Z,3.95
2023-02-20T17:14:16.591Z,4.10
2023-02-20T17:17:02.926Z,3.75
2023-02-20T17:19:48.441Z,3.63
2023-02-20T17:22:34.250Z,3.78
2023-02-20T17:25:22.613Z,5.15
2023-02-20T17:28:07.986Z,4.95
2023-02-20T17:30:54.576Z,5.30
2023-02-20T17:33:40.906Z,5.18
2023-02-20T17:36:26.239Z,5.50
2023-02-20T17:39:11.727Z,5.97
2023-02-20T17:41:58.112Z,6.15
2023-02-20T17:44:43.504Z,6.40
2023-02-20T17:47:28.998Z,5.78
2023-02-20T17:50:18.310Z,5.93
2023-02-20T17:53:03.503Z,5.32
2023-02-20T17:55:49.208Z,4.82
2023-02-20T17:58:34.946Z,5.55
2023-02-20T18:01:22.404Z,5.97
2023-02-20T18:04:09.081Z,5.10
2023-02-20T18:06:54.594Z,4.65
2023-02-20T18:09:39.999Z,5.07
2023-02-20T18:12:26.266Z,5.45
2023-02-20T18:15:12.286Z,5.47
2023-02-20T18:17:57.535Z,5.43
2023-02-20T18:20:42.890Z,5.13
2023-02-20T18:23:28.529Z,4.93
2023-02-20T18:26:15.391Z,4.20
2023-02-20T18:29:01.072Z,4.70
2023-02-20T18:31:47.745Z,5.05
2023-02-20T18:34:33.320Z,4.68
2023-02-20T18:37:18.718Z,5.80
2023-02-20T18:40:05.306Z,5.15
2023-02-20T18:42:51.555Z,5.32
2023-02-20T18:45:37.260Z,5.35
2023-02-20T18:48:22.741Z,6.10
2023-02-20T18:51:08.339Z,5.13
2023-02-20T18:53:54.031Z,6.10
2023-02-20T18:56:39.492Z,5.60
2023-02-20T18:59:28.814Z,5.32
2023-02-20T19:02:15.450Z,5.88
2023-02-20T19:05:00.864Z,6.35
2023-02-20T19:07:47.650Z,8.40
2023-02-20T19:10:33.548Z,9.50
2023-02-20T19:13:19.053Z,11.18
2023-02-20T19:16:06.995Z,7.47
2023-02-20T19:18:52.532Z,7.85
2023-02-20T19:21:38.091Z,8.35
2023-02-20T19:24:24.410Z,9.35
2023-02-20T19:27:11.864Z,11.05
2023-02-20T19:29:57.478Z,19.02
2023-02-20T19:32:43.352Z,12.63
2023-02-20T19:35:28.805Z,9.70
2023-02-20T19:38:15.059Z,9.30
2023-02-20T19:41:00.404Z,7.57
2023-02-20T19:43:47.555Z,7.97
2023-02-20T19:46:33.212Z,7.28
2023-02-20T19:49:18.878Z,7.47
2023-02-20T19:52:04.575Z,7.22
2023-02-20T19:54:49.874Z,7.97
2023-02-20T19:57:35.330Z,7.38
2023-02-20T20:00:25.441Z,7.13
2023-02-20T20:03:11.892Z,7.03
2023-02-20T20:05:57.651Z,7.32
2023-02-20T20:09:09.558Z,7.60
2023-02-20T20:11:48.915Z,6.97
2023-02-20T20:14:34.362Z,7.38
2023-02-20T20:17:19.918Z,8.20
2023-02-20T20:20:06.062Z,8.05
2023-02-20T20:22:53.682Z,8.20
2023-02-20T20:25:38.927Z,8.60
2023-02-20T20:28:24.351Z,7.43
2023-02-20T20:31:09.870Z,8.68
2023-02-20T20:33:55.570Z,8.50
2023-02-20T20:36:41.280Z,7.75
2023-02-20T20:39:26.851Z,7.78
2023-02-20T20:42:12.671Z,7.63
2023-02-20T20:44:59.415Z,8.05
2023-02-20T20:47:45.041Z,8.38
2023-02-20T20:50:31.388Z,7.75
2023-02-20T20:53:17.235Z,6.75
2023-02-20T20:56:05.725Z,6.43
2023-02-20T20:58:51.510Z,6.50
2023-02-20T21:01:37.296Z,6.38
2023-02-20T21:04:23.111Z,6.97
2023-02-20T21:07:08.806Z,6.30
2023-02-20T21:09:54.016Z,6.70
2023-02-20T21:12:40.258Z,6.15
2023-02-20T21:15:26.437Z,6.27
2023-02-20T21:18:11.974Z,6.20
2023-02-20T21:20:57.270Z,6.30
2023-02-20T21:23:46.141Z,6.20
2023-02-20T21:26:32.367Z,5.90
2023-02-20T21:29:18.692Z,6.27
2023-02-20T21:32:04.597Z,6.40
2023-02-20T21:34:50.432Z,5.77
2023-02-20T21:37:35.775Z,6.27
2023-02-20T21:40:21.103Z,5.53
2023-02-20T21:43:25.355Z,6.10
2023-02-20T21:46:10.914Z,6.00
2023-02-20T21:48:56.260Z,5.73
2023-02-20T21:51:42.003Z,5.37
2023-02-20T21:54:30.579Z,5.33
2023-02-20T21:57:16.904Z,5.73
2023-02-20T22:00:04.182Z,5.90
2023-02-20T22:02:51.044Z,5.37
2023-02-20T22:05:36.693Z,5.87
2023-02-20T22:08:40.858Z,5.67
2023-02-20T22:11:44.574Z,6.17
2023-02-20T22:14:48.472Z,5.93
2023-02-20T22:17:54.328Z,6.00
2023-02-20T22:20:58.105Z,6.30
2023-02-20T22:24:02.103Z,6.33
2023-02-20T22:27:07.917Z,6.43
2023-02-20T22:30:12.014Z,5.93
2023-02-20T22:33:16.394Z,6.32
2023-02-20T22:36:20.181Z,6.23
2023-02-20T22:39:24.255Z,6.23
2023-02-20T22:42:34.670Z,7.00
2023-02-20T22:45:39.528Z,6.53
2023-02-20T22:48:43.266Z,6.13
2023-02-20T22:51:47.080Z,6.03
2023-02-20T22:55:03.943Z,6.07
2023-02-20T22:58:09.168Z,5.37
2023-02-20T23:01:13.297Z,6.30
2023-02-20T23:04:17.398Z,6.38
2023-02-20T23:07:21.453Z,7.23
2023-02-20T23:10:26.193Z,5.90
2023-02-20T23:13:30.092Z,5.72
2023-02-20T23:16:44.268Z,6.67
2023-02-20T23:19:48.126Z,6.37
2023-02-20T23:22:52.162Z,6.10
2023-02-20T23:25:56.478Z,6.27
2023-02-20T23:29:00.297Z,6.20
2023-02-20T23:32:03.964Z,6.40
2023-02-20T23:35:08.882Z,6.63
2023-02-20T23:38:13.355Z,6.90
2023-02-20T23:41:17.393Z,6.10
2023-02-20T23:44:24.726Z,6.67
2023-02-20T23:47:28.697Z,6.30
2023-02-20T23:50:32.564Z,6.70
2023-02-20T23:53:36.394Z,6.40
2023-02-20T23:56:40.708Z,6.60
2023-02-20T23:59:45.689Z,6.40
